sensor_id;sensor_type;location;lat;lon;timestamp;temperature;humidity
7384;DHT22;3733;47.994;8.820;2023-08-17T00:01:34;18.20;99.90
7384;DHT22;3733;47.994;8.820;2023-08-17T00:04:00;18.20;99.90
7384;DHT22;3733;47.994;8.820;2023-08-17T00:06:26;18.20;99.90
7384;DHT22;3733;47.994;8.820;2023-08-17T00:08:51;18.10;99.90
7384;DHT22;3733;47.994;8.820;2023-08-17T00:11:17;18.10;99.90
7384;DHT22;3733;47.994;8.820;2023-08-17T00:13:42;18.10;99.90
7384;DHT22;3733;47.994;8.820;2023-08-17T00:16:08;18.10;99.90
7384;DHT22;3733;47.994;8.820;2023-08-17T00:18:34;18.10;99.90
7384;DHT22;3733;47.994;8.820;2023-08-17T00:20:59;18.00;99.90
7384;DHT22;3733;47.994;8.820;2023-08-17T00:23:25;18.00;99.90
7384;DHT22;3733;47.994;8.820;2023-08-17T00:25:51;18.00;99.90
7384;DHT22;3733;47.994;8.820;2023-08-17T00:28:16;18.00;99.90
7384;DHT22;3733;47.994;8.820;2023-08-17T00:30:42;18.00;99.90
7384;DHT22;3733;47.994;8.820;2023-08-17T00:33:07;18.00;99.90
7384;DHT22;3733;47.994;8.820;2023-08-17T00:35:33;17.90;99.90
7384;DHT22;3733;47.994;8.820;2023-08-17T00:38:00;17.90;99.90
7384;DHT22;3733;47.994;8.820;2023-08-17T00:40:25;17.90;99.90
7384;DHT22;3733;47.994;8.820;2023-08-17T00:42:51;17.90;99.90
7384;DHT22;3733;47.994;8.820;2023-08-17T00:45:18;17.80;99.90
7384;DHT22;3733;47.994;8.820;2023-08-17T00:47:44;17.80;99.90
7384;DHT22;3733;47.994;8.820;2023-08-17T00:50:11;17.80;99.90
7384;DHT22;3733;47.994;8.820;2023-08-17T00:52:38;17.80;99.90
7384;DHT22;3733;47.994;8.820;2023-08-17T00:55:05;17.80;99.90
7384;DHT22;3733;47.994;8.820;2023-08-17T00:57:31;17.80;99.90
7384;DHT22;3733;47.994;8.820;2023-08-17T00:59:58;17.80;99.90
7384;DHT22;3733;47.994;8.820;2023-08-17T01:02:24;17.80;99.90
7384;DHT22;3733;47.994;8.820;2023-08-17T01:04:50;17.70;99.90
7384;DHT22;3733;47.994;8.820;2023-08-17T01:07:16;17.70;99.90
7384;DHT22;3733;47.994;8.820;2023-08-17T01:09:42;17.70;99.90
7384;DHT22;3733;47.994;8.820;2023-08-17T01:12:19;17.70;99.90
7384;DHT22;3733;47.994;8.820;2023-08-17T01:17:33;17.70;99.90
7384;DHT22;3733;47.994;8.820;2023-08-17T01:19:58;17.70;99.90
7384;DHT22;3733;47.994;8.820;2023-08-17T01:22:26;17.70;99.90
7384;DHT22;3733;47.994;8.820;2023-08-17T01:24:56;17.70;99.90
7384;DHT22;3733;47.994;8.820;2023-08-17T01:27:25;17.60;99.90
7384;DHT22;3733;47.994;8.820;2023-08-17T01:29:51;17.60;99.90
7384;DHT22;3733;47.994;8.820;2023-08-17T01:33:10;17.60;99.90
7384;DHT22;3733;47.994;8.820;2023-08-17T01:35:50;17.60;99.90
7384;DHT22;3733;47.994;8.820;2023-08-17T01:38:18;17.60;99.90
7384;DHT22;3733;47.994;8.820;2023-08-17T01:40:46;17.60;99.90
7384;DHT22;3733;47.994;8.820;2023-08-17T01:43:13;17.50;99.90
7384;DHT22;3733;47.994;8.820;2023-08-17T01:45:40;17.50;99.90
7384;DHT22;3733;47.994;8.820;2023-08-17T01:48:05;17.50;99.90
7384;DHT22;3733;47.994;8.820;2023-08-17T01:50:31;17.50;99.90
7384;DHT22;3733;47.994;8.820;2023-08-17T01:52:57;17.50;99.90
7384;DHT22;3733;47.994;8.820;2023-08-17T01:55:22;17.50;99.90
7384;DHT22;3733;47.994;8.820;2023-08-17T01:57:49;17.50;99.90
7384;DHT22;3733;47.994;8.820;2023-08-17T02:00:15;17.50;99.90
7384;DHT22;3733;47.994;8.820;2023-08-17T02:02:40;17.60;99.90
7384;DHT22;3733;47.994;8.820;2023-08-17T02:05:07;17.60;99.90
7384;DHT22;3733;47.994;8.820;2023-08-17T02:07:32;17.60;99.90
7384;DHT22;3733;47.994;8.820;2023-08-17T02:09:58;17.60;99.90
7384;DHT22;3733;47.994;8.820;2023-08-17T02:12:24;17.60;99.90
7384;DHT22;3733;47.994;8.820;2023-08-17T02:14:50;17.60;99.90
7384;DHT22;3733;47.994;8.820;2023-08-17T02:17:16;17.60;99.90
7384;DHT22;3733;47.994;8.820;2023-08-17T02:19:45;17.60;99.90
7384;DHT22;3733;47.994;8.820;2023-08-17T02:22:13;17.60;99.90
7384;DHT22;3733;47.994;8.820;2023-08-17T02:24:38;17.60;99.90
7384;DHT22;3733;47.994;8.820;2023-08-17T02:27:04;17.60;99.90
7384;DHT22;3733;47.994;8.820;2023-08-17T02:29:30;17.50;99.90
7384;DHT22;3733;47.994;8.820;2023-08-17T02:31:55;17.40;99.90
7384;DHT22;3733;47.994;8.820;2023-08-17T02:34:21;17.40;99.90
7384;DHT22;3733;47.994;8.820;2023-08-17T02:36:46;17.30;99.90
7384;DHT22;3733;47.994;8.820;2023-08-17T02:39:12;17.30;99.90
7384;DHT22;3733;47.994;8.820;2023-08-17T02:41:38;17.30;99.90
7384;DHT22;3733;47.994;8.820;2023-08-17T02:44:03;17.30;99.90
7384;DHT22;3733;47.994;8.820;2023-08-17T02:46:29;17.30;99.90
7384;DHT22;3733;47.994;8.820;2023-08-17T02:48:55;17.30;99.90
7384;DHT22;3733;47.994;8.820;2023-08-17T02:51:20;17.30;99.90
7384;DHT22;3733;47.994;8.820;2023-08-17T02:53:46;17.30;99.90
7384;DHT22;3733;47.994;8.820;2023-08-17T02:56:11;17.20;99.90
7384;DHT22;3733;47.994;8.820;2023-08-17T02:58:40;17.20;99.90
7384;DHT22;3733;47.994;8.820;2023-08-17T03:01:07;17.20;99.90
7384;DHT22;3733;47.994;8.820;2023-08-17T03:03:32;17.10;99.90
7384;DHT22;3733;47.994;8.820;2023-08-17T03:05:58;17.10;99.90
7384;DHT22;3733;47.994;8.820;2023-08-17T03:08:24;17.10;99.90
7384;DHT22;3733;47.994;8.820;2023-08-17T03:10:49;17.00;99.90
7384;DHT22;3733;47.994;8.820;2023-08-17T03:13:15;17.00;99.90
7384;DHT22;3733;47.994;8.820;2023-08-17T03:15:41;17.00;99.90
7384;DHT22;3733;47.994;8.820;2023-08-17T03:18:06;17.00;99.90
7384;DHT22;3733;47.994;8.820;2023-08-17T03:20:32;16.90;99.90
7384;DHT22;3733;47.994;8.820;2023-08-17T03:22:57;16.90;99.90
7384;DHT22;3733;47.994;8.820;2023-08-17T03:25:23;16.90;99.90
7384;DHT22;3733;47.994;8.820;2023-08-17T03:27:49;16.90;99.90
7384;DHT22;3733;47.994;8.820;2023-08-17T03:30:14;16.90;99.90
7384;DHT22;3733;47.994;8.820;2023-08-17T03:32:40;16.90;99.90
7384;DHT22;3733;47.994;8.820;2023-08-17T03:35:06;16.90;99.90
7384;DHT22;3733;47.994;8.820;2023-08-17T03:37:32;16.90;99.90
7384;DHT22;3733;47.994;8.820;2023-08-17T03:39:58;17.00;99.90
7384;DHT22;3733;47.994;8.820;2023-08-17T03:42:26;17.00;99.90
7384;DHT22;3733;47.994;8.820;2023-08-17T03:44:52;17.00;99.90
7384;DHT22;3733;47.994;8.820;2023-08-17T03:47:18;17.00;99.90
7384;DHT22;3733;47.994;8.820;2023-08-17T03:49:43;17.00;99.90
7384;DHT22;3733;47.994;8.820;2023-08-17T03:52:09;17.10;99.90
7384;DHT22;3733;47.994;8.820;2023-08-17T03:54:35;17.10;99.90
7384;DHT22;3733;47.994;8.820;2023-08-17T03:57:01;17.10;99.90
7384;DHT22;3733;47.994;8.820;2023-08-17T03:59:27;17.00;99.90
7384;DHT22;3733;47.994;8.820;2023-08-17T04:01:53;17.00;99.90
7384;DHT22;3733;47.994;8.820;2023-08-17T04:04:19;16.90;99.90
7384;DHT22;3733;47.994;8.820;2023-08-17T04:06:44;16.90;99.90
7384;DHT22;3733;47.994;8.820;2023-08-17T04:09:10;16.80;99.90
7384;DHT22;3733;47.994;8.820;2023-08-17T04:11:35;16.80;99.90
7384;DHT22;3733;47.994;8.820;2023-08-17T04:14:04;16.80;99.90
7384;DHT22;3733;47.994;8.820;2023-08-17T04:16:30;16.90;99.90
7384;DHT22;3733;47.994;8.820;2023-08-17T04:18:55;16.90;99.90
7384;DHT22;3733;47.994;8.820;2023-08-17T04:21:21;16.90;99.90
7384;DHT22;3733;47.994;8.820;2023-08-17T04:23:47;16.90;99.90
7384;DHT22;3733;47.994;8.820;2023-08-17T04:26:13;16.90;99.90
7384;DHT22;3733;47.994;8.820;2023-08-17T04:28:38;16.90;99.90
7384;DHT22;3733;47.994;8.820;2023-08-17T04:31:04;16.90;99.90
7384;DHT22;3733;47.994;8.820;2023-08-17T04:33:30;16.90;99.90
7384;DHT22;3733;47.994;8.820;2023-08-17T04:35:55;16.80;99.90
7384;DHT22;3733;47.994;8.820;2023-08-17T04:38:21;16.80;99.90
7384;DHT22;3733;47.994;8.820;2023-08-17T04:40:47;16.80;99.90
7384;DHT22;3733;47.994;8.820;2023-08-17T04:43:13;16.80;99.90
7384;DHT22;3733;47.994;8.820;2023-08-17T04:45:38;16.80;99.90
7384;DHT22;3733;47.994;8.820;2023-08-17T04:48:05;16.90;99.90
7384;DHT22;3733;47.994;8.820;2023-08-17T04:50:31;16.90;99.90
7384;DHT22;3733;47.994;8.820;2023-08-17T04:52:57;16.90;99.90
7384;DHT22;3733;47.994;8.820;2023-08-17T04:55:23;16.80;99.90
7384;DHT22;3733;47.994;8.820;2023-08-17T04:57:49;16.80;99.90
7384;DHT22;3733;47.994;8.820;2023-08-17T05:00:15;16.80;99.90
7384;DHT22;3733;47.994;8.820;2023-08-17T05:02:41;16.80;99.90
7384;DHT22;3733;47.994;8.820;2023-08-17T05:05:09;16.80;99.90
7384;DHT22;3733;47.994;8.820;2023-08-17T05:07:34;16.90;99.90
7384;DHT22;3733;47.994;8.820;2023-08-17T05:10:00;16.90;99.90
7384;DHT22;3733;47.994;8.820;2023-08-17T05:12:26;16.90;99.90
7384;DHT22;3733;47.994;8.820;2023-08-17T05:14:52;17.00;99.90
7384;DHT22;3733;47.994;8.820;2023-08-17T05:17:17;16.90;99.90
7384;DHT22;3733;47.994;8.820;2023-08-17T05:19:43;17.00;99.90
7384;DHT22;3733;47.994;8.820;2023-08-17T05:22:11;16.90;99.90
7384;DHT22;3733;47.994;8.820;2023-08-17T05:24:38;16.90;99.90
7384;DHT22;3733;47.994;8.820;2023-08-17T05:27:04;16.90;99.90
7384;DHT22;3733;47.994;8.820;2023-08-17T05:29:29;16.80;99.90
7384;DHT22;3733;47.994;8.820;2023-08-17T05:31:57;16.80;99.90
7384;DHT22;3733;47.994;8.820;2023-08-17T05:34:23;16.70;99.90
7384;DHT22;3733;47.994;8.820;2023-08-17T05:36:48;16.70;99.90
7384;DHT22;3733;47.994;8.820;2023-08-17T05:39:14;16.70;99.90
7384;DHT22;3733;47.994;8.820;2023-08-17T05:41:40;16.70;99.90
7384;DHT22;3733;47.994;8.820;2023-08-17T05:44:05;16.80;99.90
7384;DHT22;3733;47.994;8.820;2023-08-17T05:46:33;16.90;99.90
7384;DHT22;3733;47.994;8.820;2023-08-17T05:48:58;16.90;99.90
7384;DHT22;3733;47.994;8.820;2023-08-17T05:51:24;16.90;99.90
7384;DHT22;3733;47.994;8.820;2023-08-17T05:53:50;17.00;99.90
7384;DHT22;3733;47.994;8.820;2023-08-17T05:56:15;17.00;99.90
7384;DHT22;3733;47.994;8.820;2023-08-17T05:58:41;17.10;99.90
7384;DHT22;3733;47.994;8.820;2023-08-17T06:01:08;17.10;99.90
7384;DHT22;3733;47.994;8.820;2023-08-17T06:03:37;17.20;99.90
7384;DHT22;3733;47.994;8.820;2023-08-17T06:06:05;17.30;99.90
7384;DHT22;3733;47.994;8.820;2023-08-17T06:08:31;17.30;99.90
7384;DHT22;3733;47.994;8.820;2023-08-17T06:10:57;17.30;99.90
7384;DHT22;3733;47.994;8.820;2023-08-17T06:13:23;17.40;99.90
7384;DHT22;3733;47.994;8.820;2023-08-17T06:15:49;17.50;99.90
7384;DHT22;3733;47.994;8.820;2023-08-17T06:18:15;17.50;99.90
7384;DHT22;3733;47.994;8.820;2023-08-17T06:20:40;17.50;99.90
7384;DHT22;3733;47.994;8.820;2023-08-17T06:23:06;17.60;99.90
7384;DHT22;3733;47.994;8.820;2023-08-17T06:25:32;17.60;99.90
7384;DHT22;3733;47.994;8.820;2023-08-17T06:27:58;17.60;99.90
7384;DHT22;3733;47.994;8.820;2023-08-17T06:30:23;17.60;99.90
7384;DHT22;3733;47.994;8.820;2023-08-17T06:32:52;17.60;99.90
7384;DHT22;3733;47.994;8.820;2023-08-17T06:35:18;17.80;99.90
7384;DHT22;3733;47.994;8.820;2023-08-17T06:37:43;17.80;99.90
7384;DHT22;3733;47.994;8.820;2023-08-17T06:40:09;17.90;99.90
7384;DHT22;3733;47.994;8.820;2023-08-17T06:42:35;18.00;99.90
7384;DHT22;3733;47.994;8.820;2023-08-17T06:45:01;18.10;99.90
7384;DHT22;3733;47.994;8.820;2023-08-17T06:47:26;18.10;99.90
7384;DHT22;3733;47.994;8.820;2023-08-17T06:49:52;18.20;99.90
7384;DHT22;3733;47.994;8.820;2023-08-17T06:52:18;18.20;99.90
7384;DHT22;3733;47.994;8.820;2023-08-17T06:54:43;18.30;99.90
7384;DHT22;3733;47.994;8.820;2023-08-17T06:57:09;18.30;99.90
7384;DHT22;3733;47.994;8.820;2023-08-17T06:59:34;18.40;99.90
7384;DHT22;3733;47.994;8.820;2023-08-17T07:02:00;18.40;99.90
7384;DHT22;3733;47.994;8.820;2023-08-17T07:04:26;18.50;99.90
7384;DHT22;3733;47.994;8.820;2023-08-17T07:06:52;18.50;99.90
7384;DHT22;3733;47.994;8.820;2023-08-17T07:09:17;18.60;99.90
7384;DHT22;3733;47.994;8.820;2023-08-17T07:11:44;18.60;99.90
7384;DHT22;3733;47.994;8.820;2023-08-17T07:14:09;18.70;99.90
7384;DHT22;3733;47.994;8.820;2023-08-17T07:16:35;18.80;99.90
7384;DHT22;3733;47.994;8.820;2023-08-17T07:19:00;18.80;99.90
7384;DHT22;3733;47.994;8.820;2023-08-17T07:21:26;18.90;99.90
7384;DHT22;3733;47.994;8.820;2023-08-17T07:23:55;19.00;99.90
7384;DHT22;3733;47.994;8.820;2023-08-17T07:26:21;19.10;99.90
7384;DHT22;3733;47.994;8.820;2023-08-17T07:28:48;19.20;99.90
7384;DHT22;3733;47.994;8.820;2023-08-17T07:31:14;19.40;99.90
7384;DHT22;3733;47.994;8.820;2023-08-17T07:33:40;19.50;99.90
7384;DHT22;3733;47.994;8.820;2023-08-17T07:36:05;19.60;99.90
7384;DHT22;3733;47.994;8.820;2023-08-17T07:38:31;19.80;99.90
7384;DHT22;3733;47.994;8.820;2023-08-17T07:40:57;19.90;99.90
7384;DHT22;3733;47.994;8.820;2023-08-17T07:43:23;20.00;99.90
7384;DHT22;3733;47.994;8.820;2023-08-17T07:45:56;20.10;99.90
7384;DHT22;3733;47.994;8.820;2023-08-17T07:48:21;20.20;99.90
7384;DHT22;3733;47.994;8.820;2023-08-17T07:50:53;20.40;99.90
7384;DHT22;3733;47.994;8.820;2023-08-17T07:53:19;20.40;99.90
7384;DHT22;3733;47.994;8.820;2023-08-17T07:55:45;20.60;99.90
7384;DHT22;3733;47.994;8.820;2023-08-17T07:58:11;20.70;99.90
7384;DHT22;3733;47.994;8.820;2023-08-17T08:00:37;20.80;99.90
7384;DHT22;3733;47.994;8.820;2023-08-17T08:03:03;20.90;99.90
7384;DHT22;3733;47.994;8.820;2023-08-17T08:05:29;21.00;99.90
7384;DHT22;3733;47.994;8.820;2023-08-17T08:07:54;21.10;99.90
7384;DHT22;3733;47.994;8.820;2023-08-17T08:10:20;21.20;99.90
7384;DHT22;3733;47.994;8.820;2023-08-17T08:12:46;21.20;99.90
7384;DHT22;3733;47.994;8.820;2023-08-17T08:15:11;21.30;99.90
7384;DHT22;3733;47.994;8.820;2023-08-17T08:17:37;21.40;99.90
7384;DHT22;3733;47.994;8.820;2023-08-17T08:20:03;21.50;99.90
7384;DHT22;3733;47.994;8.820;2023-08-17T08:22:29;21.60;99.90
7384;DHT22;3733;47.994;8.820;2023-08-17T08:24:55;21.70;99.90
7384;DHT22;3733;47.994;8.820;2023-08-17T08:27:20;21.80;99.90
7384;DHT22;3733;47.994;8.820;2023-08-17T08:29:46;21.90;99.90
7384;DHT22;3733;47.994;8.820;2023-08-17T08:32:12;22.00;99.90
7384;DHT22;3733;47.994;8.820;2023-08-17T08:34:38;22.10;99.90
7384;DHT22;3733;47.994;8.820;2023-08-17T08:37:03;22.10;99.90
7384;DHT22;3733;47.994;8.820;2023-08-17T08:39:29;22.30;99.90
7384;DHT22;3733;47.994;8.820;2023-08-17T08:41:55;22.40;99.90
7384;DHT22;3733;47.994;8.820;2023-08-17T08:44:21;22.50;99.90
7384;DHT22;3733;47.994;8.820;2023-08-17T08:46:47;22.60;99.90
7384;DHT22;3733;47.994;8.820;2023-08-17T08:49:19;22.50;99.90
7384;DHT22;3733;47.994;8.820;2023-08-17T08:51:48;22.50;99.90
7384;DHT22;3733;47.994;8.820;2023-08-17T08:54:20;22.50;99.90
7384;DHT22;3733;47.994;8.820;2023-08-17T08:56:46;22.60;99.90
7384;DHT22;3733;47.994;8.820;2023-08-17T08:59:14;22.80;99.90
7384;DHT22;3733;47.994;8.820;2023-08-17T09:01:40;23.00;99.90
7384;DHT22;3733;47.994;8.820;2023-08-17T09:04:06;23.00;99.90
7384;DHT22;3733;47.994;8.820;2023-08-17T09:06:32;23.20;99.90
7384;DHT22;3733;47.994;8.820;2023-08-17T09:09:01;23.30;99.90
7384;DHT22;3733;47.994;8.820;2023-08-17T09:11:28;23.50;99.90
7384;DHT22;3733;47.994;8.820;2023-08-17T09:13:54;23.60;99.90
7384;DHT22;3733;47.994;8.820;2023-08-17T09:16:20;23.60;99.90
7384;DHT22;3733;47.994;8.820;2023-08-17T09:18:45;23.80;99.90
7384;DHT22;3733;47.994;8.820;2023-08-17T09:21:23;23.90;99.90
7384;DHT22;3733;47.994;8.820;2023-08-17T09:23:53;24.10;99.90
7384;DHT22;3733;47.994;8.820;2023-08-17T09:26:20;24.20;99.90
7384;DHT22;3733;47.994;8.820;2023-08-17T09:28:49;24.40;99.90
7384;DHT22;3733;47.994;8.820;2023-08-17T09:31:15;24.60;99.90
7384;DHT22;3733;47.994;8.820;2023-08-17T09:33:41;24.70;99.90
7384;DHT22;3733;47.994;8.820;2023-08-17T09:36:10;24.90;99.90
7384;DHT22;3733;47.994;8.820;2023-08-17T09:38:37;25.00;99.90
7384;DHT22;3733;47.994;8.820;2023-08-17T09:41:04;25.10;99.90
7384;DHT22;3733;47.994;8.820;2023-08-17T09:43:31;25.20;99.90
7384;DHT22;3733;47.994;8.820;2023-08-17T09:45:59;25.20;99.90
7384;DHT22;3733;47.994;8.820;2023-08-17T09:48:27;25.20;99.90
7384;DHT22;3733;47.994;8.820;2023-08-17T09:50:56;25.30;99.90
7384;DHT22;3733;47.994;8.820;2023-08-17T09:53:22;25.30;99.90
7384;DHT22;3733;47.994;8.820;2023-08-17T09:55:48;25.30;99.90
7384;DHT22;3733;47.994;8.820;2023-08-17T09:58:14;25.40;99.90
7384;DHT22;3733;47.994;8.820;2023-08-17T10:00:47;25.50;99.90
7384;DHT22;3733;47.994;8.820;2023-08-17T10:03:15;25.60;99.90
7384;DHT22;3733;47.994;8.820;2023-08-17T10:05:43;25.70;99.90
7384;DHT22;3733;47.994;8.820;2023-08-17T10:08:11;25.80;94.80
7384;DHT22;3733;47.994;8.820;2023-08-17T10:10:42;26.00;92.70
7384;DHT22;3733;47.994;8.820;2023-08-17T10:13:37;26.20;96.10
7384;DHT22;3733;47.994;8.820;2023-08-17T10:16:26;26.40;96.00
7384;DHT22;3733;47.994;8.820;2023-08-17T10:21:43;26.80;90.20
7384;DHT22;3733;47.994;8.820;2023-08-17T10:24:09;27.00;81.60
7384;DHT22;3733;47.994;8.820;2023-08-17T10:26:36;27.30;78.80
7384;DHT22;3733;47.994;8.820;2023-08-17T10:29:03;27.50;70.90
7384;DHT22;3733;47.994;8.820;2023-08-17T10:31:29;27.60;70.70
7384;DHT22;3733;47.994;8.820;2023-08-17T10:33:56;27.60;70.50
7384;DHT22;3733;47.994;8.820;2023-08-17T10:36:23;27.70;65.60
7384;DHT22;3733;47.994;8.820;2023-08-17T10:41:50;27.80;68.70
7384;DHT22;3733;47.994;8.820;2023-08-17T10:47:22;28.10;68.60
7384;DHT22;3733;47.994;8.820;2023-08-17T10:50:22;28.30;68.50
7384;DHT22;3733;47.994;8.820;2023-08-17T10:52:49;28.50;63.00
7384;DHT22;3733;47.994;8.820;2023-08-17T10:55:16;28.60;65.20
7384;DHT22;3733;47.994;8.820;2023-08-17T10:57:43;28.80;64.60
7384;DHT22;3733;47.994;8.820;2023-08-17T11:05:42;29.20;59.80
7384;DHT22;3733;47.994;8.820;2023-08-17T11:11:04;29.40;60.10
7384;DHT22;3733;47.994;8.820;2023-08-17T11:13:40;29.60;62.10
7384;DHT22;3733;47.994;8.820;2023-08-17T11:16:08;29.70;59.90
7384;DHT22;3733;47.994;8.820;2023-08-17T11:18:34;29.50;59.20
7384;DHT22;3733;47.994;8.820;2023-08-17T11:21:02;29.40;59.80
7384;DHT22;3733;47.994;8.820;2023-08-17T11:23:29;29.40;60.20
7384;DHT22;3733;47.994;8.820;2023-08-17T11:25:56;29.50;61.80
7384;DHT22;3733;47.994;8.820;2023-08-17T11:28:23;29.70;62.40
7384;DHT22;3733;47.994;8.820;2023-08-17T11:30:59;29.70;59.90
7384;DHT22;3733;47.994;8.820;2023-08-17T11:33:26;29.40;57.20
7384;DHT22;3733;47.994;8.820;2023-08-17T11:36:00;29.10;58.50
7384;DHT22;3733;47.994;8.820;2023-08-17T11:38:30;28.70;58.90
7384;DHT22;3733;47.994;8.820;2023-08-17T11:40:57;28.30;60.70
7384;DHT22;3733;47.994;8.820;2023-08-17T11:43:22;27.90;63.00
7384;DHT22;3733;47.994;8.820;2023-08-17T11:45:48;27.60;60.20
7384;DHT22;3733;47.994;8.820;2023-08-17T11:48:14;27.00;65.50
7384;DHT22;3733;47.994;8.820;2023-08-17T11:50:42;26.30;87.30
7384;DHT22;3733;47.994;8.820;2023-08-17T11:53:08;25.10;80.80
7384;DHT22;3733;47.994;8.820;2023-08-17T11:55:33;23.90;84.70
7384;DHT22;3733;47.994;8.820;2023-08-17T11:57:59;22.70;97.60
7384;DHT22;3733;47.994;8.820;2023-08-17T12:00:26;21.80;99.90
7384;DHT22;3733;47.994;8.820;2023-08-17T12:02:52;21.10;99.90
7384;DHT22;3733;47.994;8.820;2023-08-17T12:05:22;20.60;99.90
7384;DHT22;3733;47.994;8.820;2023-08-17T12:07:53;20.30;99.90
7384;DHT22;3733;47.994;8.820;2023-08-17T12:10:19;20.00;99.90
7384;DHT22;3733;47.994;8.820;2023-08-17T12:12:48;19.90;99.90
7384;DHT22;3733;47.994;8.820;2023-08-17T12:15:16;19.90;99.90
7384;DHT22;3733;47.994;8.820;2023-08-17T12:17:49;19.90;99.90
7384;DHT22;3733;47.994;8.820;2023-08-17T12:20:19;19.90;99.90
7384;DHT22;3733;47.994;8.820;2023-08-17T12:22:46;19.90;99.90
7384;DHT22;3733;47.994;8.820;2023-08-17T12:25:12;19.90;99.90
7384;DHT22;3733;47.994;8.820;2023-08-17T12:27:38;19.90;99.90
7384;DHT22;3733;47.994;8.820;2023-08-17T12:30:05;19.80;99.90
7384;DHT22;3733;47.994;8.820;2023-08-17T12:32:36;19.80;99.90
7384;DHT22;3733;47.994;8.820;2023-08-17T12:35:02;19.70;99.90
7384;DHT22;3733;47.994;8.820;2023-08-17T12:37:29;19.70;99.90
7384;DHT22;3733;47.994;8.820;2023-08-17T12:39:54;19.70;99.90
7384;DHT22;3733;47.994;8.820;2023-08-17T12:42:20;19.80;99.90
7384;DHT22;3733;47.994;8.820;2023-08-17T12:44:45;19.80;99.90
7384;DHT22;3733;47.994;8.820;2023-08-17T12:47:11;19.80;99.90
7384;DHT22;3733;47.994;8.820;2023-08-17T12:49:37;19.90;99.90
7384;DHT22;3733;47.994;8.820;2023-08-17T12:52:03;19.90;99.90
7384;DHT22;3733;47.994;8.820;2023-08-17T12:54:28;19.90;99.90
7384;DHT22;3733;47.994;8.820;2023-08-17T12:56:54;19.90;99.90
7384;DHT22;3733;47.994;8.820;2023-08-17T12:59:19;20.10;99.90
7384;DHT22;3733;47.994;8.820;2023-08-17T13:01:45;20.10;99.90
7384;DHT22;3733;47.994;8.820;2023-08-17T13:04:10;20.20;99.90
7384;DHT22;3733;47.994;8.820;2023-08-17T13:06:36;20.30;99.90
7384;DHT22;3733;47.994;8.820;2023-08-17T13:09:02;20.30;99.90
7384;DHT22;3733;47.994;8.820;2023-08-17T13:11:27;20.40;99.90
7384;DHT22;3733;47.994;8.820;2023-08-17T13:13:53;20.50;99.90
7384;DHT22;3733;47.994;8.820;2023-08-17T13:16:19;20.60;99.90
7384;DHT22;3733;47.994;8.820;2023-08-17T13:18:44;20.70;99.90
7384;DHT22;3733;47.994;8.820;2023-08-17T13:21:10;20.80;99.90
7384;DHT22;3733;47.994;8.820;2023-08-17T13:23:35;20.90;99.90
7384;DHT22;3733;47.994;8.820;2023-08-17T13:26:01;20.90;99.90
7384;DHT22;3733;47.994;8.820;2023-08-17T13:28:27;20.90;99.90
7384;DHT22;3733;47.994;8.820;2023-08-17T13:30:52;21.00;99.90
7384;DHT22;3733;47.994;8.820;2023-08-17T13:33:18;21.10;99.90
7384;DHT22;3733;47.994;8.820;2023-08-17T13:35:44;21.20;99.90
7384;DHT22;3733;47.994;8.820;2023-08-17T13:38:09;21.30;99.90
7384;DHT22;3733;47.994;8.820;2023-08-17T13:40:36;21.60;99.90
7384;DHT22;3733;47.994;8.820;2023-08-17T13:43:02;21.90;99.90
7384;DHT22;3733;47.994;8.820;2023-08-17T13:45:28;22.40;99.90
7384;DHT22;3733;47.994;8.820;2023-08-17T13:47:54;22.90;99.90
7384;DHT22;3733;47.994;8.820;2023-08-17T13:50:20;23.50;99.90
7384;DHT22;3733;47.994;8.820;2023-08-17T13:52:46;23.90;99.90
7384;DHT22;3733;47.994;8.820;2023-08-17T13:55:12;24.30;99.90
7384;DHT22;3733;47.994;8.820;2023-08-17T13:57:37;24.70;99.90
7384;DHT22;3733;47.994;8.820;2023-08-17T14:00:04;24.90;99.90
7384;DHT22;3733;47.994;8.820;2023-08-17T14:02:30;24.90;99.90
7384;DHT22;3733;47.994;8.820;2023-08-17T14:04:55;24.90;99.90
7384;DHT22;3733;47.994;8.820;2023-08-17T14:07:21;24.80;99.90
7384;DHT22;3733;47.994;8.820;2023-08-17T14:09:46;24.70;99.90
7384;DHT22;3733;47.994;8.820;2023-08-17T14:12:12;24.50;99.90
7384;DHT22;3733;47.994;8.820;2023-08-17T14:14:38;24.30;99.90
7384;DHT22;3733;47.994;8.820;2023-08-17T14:17:03;24.10;99.90
7384;DHT22;3733;47.994;8.820;2023-08-17T14:19:29;24.00;99.90
7384;DHT22;3733;47.994;8.820;2023-08-17T14:21:55;23.90;99.90
7384;DHT22;3733;47.994;8.820;2023-08-17T14:24:20;24.00;99.90
7384;DHT22;3733;47.994;8.820;2023-08-17T14:26:46;24.10;99.90
7384;DHT22;3733;47.994;8.820;2023-08-17T14:29:11;24.40;99.90
7384;DHT22;3733;47.994;8.820;2023-08-17T14:31:37;24.70;99.90
7384;DHT22;3733;47.994;8.820;2023-08-17T14:34:02;24.80;99.90
7384;DHT22;3733;47.994;8.820;2023-08-17T14:36:28;24.70;99.90
7384;DHT22;3733;47.994;8.820;2023-08-17T14:38:54;24.80;99.90
7384;DHT22;3733;47.994;8.820;2023-08-17T14:41:19;24.80;99.90
7384;DHT22;3733;47.994;8.820;2023-08-17T14:43:45;24.80;99.90
7384;DHT22;3733;47.994;8.820;2023-08-17T14:46:10;24.70;99.90
7384;DHT22;3733;47.994;8.820;2023-08-17T14:48:36;24.80;99.90
7384;DHT22;3733;47.994;8.820;2023-08-17T14:51:02;24.90;99.90
7384;DHT22;3733;47.994;8.820;2023-08-17T14:53:28;25.20;99.90
7384;DHT22;3733;47.994;8.820;2023-08-17T14:55:54;25.60;99.90
7384;DHT22;3733;47.994;8.820;2023-08-17T14:58:21;25.90;99.90
7384;DHT22;3733;47.994;8.820;2023-08-17T15:00:46;26.30;99.90
7384;DHT22;3733;47.994;8.820;2023-08-17T15:03:12;26.50;99.90
7384;DHT22;3733;47.994;8.820;2023-08-17T15:05:38;26.60;99.90
7384;DHT22;3733;47.994;8.820;2023-08-17T15:08:04;26.80;99.90
7384;DHT22;3733;47.994;8.820;2023-08-17T15:10:29;26.80;99.90
7384;DHT22;3733;47.994;8.820;2023-08-17T15:12:55;26.80;99.90
7384;DHT22;3733;47.994;8.820;2023-08-17T15:15:20;26.80;99.90
7384;DHT22;3733;47.994;8.820;2023-08-17T15:17:46;26.60;99.90
7384;DHT22;3733;47.994;8.820;2023-08-17T15:20:12;26.40;99.90
7384;DHT22;3733;47.994;8.820;2023-08-17T15:22:37;26.10;99.90
7384;DHT22;3733;47.994;8.820;2023-08-17T15:25:03;25.90;99.90
7384;DHT22;3733;47.994;8.820;2023-08-17T15:27:29;25.70;99.90
7384;DHT22;3733;47.994;8.820;2023-08-17T15:29:55;25.50;99.90
7384;DHT22;3733;47.994;8.820;2023-08-17T15:32:20;25.30;99.90
7384;DHT22;3733;47.994;8.820;2023-08-17T15:34:46;25.20;99.90
7384;DHT22;3733;47.994;8.820;2023-08-17T15:37:12;25.00;99.90
7384;DHT22;3733;47.994;8.820;2023-08-17T15:39:38;24.90;99.90
7384;DHT22;3733;47.994;8.820;2023-08-17T15:42:03;24.80;99.90
7384;DHT22;3733;47.994;8.820;2023-08-17T15:44:29;24.70;99.90
7384;DHT22;3733;47.994;8.820;2023-08-17T15:46:56;24.50;99.90
7384;DHT22;3733;47.994;8.820;2023-08-17T15:49:24;24.50;99.90
7384;DHT22;3733;47.994;8.820;2023-08-17T15:51:49;24.40;99.90
7384;DHT22;3733;47.994;8.820;2023-08-17T15:54:15;24.30;99.90
7384;DHT22;3733;47.994;8.820;2023-08-17T15:56:41;24.30;99.90
7384;DHT22;3733;47.994;8.820;2023-08-17T15:59:06;24.20;99.90
7384;DHT22;3733;47.994;8.820;2023-08-17T16:01:32;24.10;99.90
7384;DHT22;3733;47.994;8.820;2023-08-17T16:03:58;24.10;99.90
7384;DHT22;3733;47.994;8.820;2023-08-17T16:06:23;24.00;99.90
7384;DHT22;3733;47.994;8.820;2023-08-17T16:08:49;23.90;99.90
7384;DHT22;3733;47.994;8.820;2023-08-17T16:11:17;23.90;99.90
7384;DHT22;3733;47.994;8.820;2023-08-17T16:13:43;23.80;99.90
7384;DHT22;3733;47.994;8.820;2023-08-17T16:16:08;23.80;99.90
7384;DHT22;3733;47.994;8.820;2023-08-17T16:18:34;23.70;99.90